»·PEaware :: N8121N KBUR-KLAS

N8121N :: KBUR-KLAS

FLIGHT INFORMATION

Flight Status: Arrived
Operator: Privately registered:
United States
More flights under this callsign
Pilot: James F. (18546)
Aircraft: BEECH AIRCRAFT DEBONAIR BONANZA
(BE33)
More flights by this aircraft type
Origin: KBUR Bob Hope-Burbank
United States
Destination: KLAS McCarran Intl
United States
More flights between these airports :: More routes between these airports
Route: VNY3 DAG CRES04
File this flight plan on PilotEdge
Remarks:
Altitude:
(Current/Filed)
11,000ft
Speed:
(Current/Filed)
165kts
Departed: 22-May-20 04:16 PM
Arrived: 22-May-20 05:41 PM
Distance/Time
Traveled:
194nm/1:24
Distance/Time
To Go:
Arrived

Flight Plot

Page will automatically refresh every two minutes.


Map Options




Map Legend


Flown Route
Filed Route
Departure Airport
Arrival Airport
Navaid (VOR, NDB)
Fix

Horizontal Profiles

Position Reports

Time Latitude Longitude Heading Altitude Ground
Speed
22-May-20 15:47 34.196338 -118.367565 358 725ft 0kts
22-May-20 15:47 34.196338 -118.367565 358 725ft 0kts
22-May-20 15:48 34.196338 -118.367565 358 725ft 0kts
22-May-20 15:49 34.196338 -118.367565 358 725ft 0kts
22-May-20 15:50 34.196338 -118.367565 358 725ft 0kts
22-May-20 15:51 34.196338 -118.367565 358 725ft 0kts
22-May-20 15:52 34.196338 -118.367565 358 725ft 0kts
22-May-20 15:53 34.196338 -118.367565 358 725ft 0kts
22-May-20 15:54 34.196338 -118.367565 358 725ft 0kts
22-May-20 15:55 34.196338 -118.367565 358 725ft 0kts
22-May-20 15:56 34.196338 -118.367565 358 725ft 0kts
22-May-20 15:57 34.196338 -118.367565 358 725ft 0kts
22-May-20 15:58 34.196338 -118.367565 358 725ft 0kts
22-May-20 15:59 34.196338 -118.367565 358 725ft 0kts
22-May-20 16:00 34.196338 -118.367565 358 725ft 0kts
22-May-20 16:01 34.196338 -118.367565 358 725ft 0kts
22-May-20 16:02 34.196338 -118.367565 358 725ft 0kts
22-May-20 16:03 34.196338 -118.367565 358 725ft 0kts
22-May-20 16:04 34.196338 -118.367565 358 725ft 0kts
22-May-20 16:05 34.196338 -118.367565 358 725ft 0kts
22-May-20 16:06 34.196338 -118.367565 358 725ft 0kts
22-May-20 16:07 34.196759 -118.366765 349 725ft 8kts
22-May-20 16:08 34.197025 -118.368833 312 729ft 0kts
22-May-20 16:09 34.197025 -118.368833 312 729ft 0kts
22-May-20 16:10 34.197025 -118.368833 312 729ft 0kts
22-May-20 16:11 34.197025 -118.368833 312 729ft 0kts
22-May-20 16:12 34.197025 -118.368833 312 729ft 0kts
22-May-20 16:13 34.197025 -118.368833 312 729ft 0kts
22-May-20 16:14 34.197898 -118.368277 94 729ft 20kts
22-May-20 16:15 34.198745 -118.342243 110 1313ft 95kts
22-May-20 16:16 34.179653 -118.342904 222 2258ft 97kts
22-May-20 16:17 34.161257 -118.367746 227 3163ft 101kts
22-May-20 16:18 34.152856 -118.397744 297 4010ft 111kts
22-May-20 16:19 34.181793 -118.414223 343 4720ft 124kts
22-May-20 16:20 34.218397 -118.422292 346 5236ft 141kts
22-May-20 16:21 34.258456 -118.430502 346 5736ft 149kts
22-May-20 16:22 34.299622 -118.440389 346 6232ft 151kts
22-May-20 16:23 34.339874 -118.450324 348 6761ft 138kts
22-May-20 16:24 34.375933 -118.458861 351 7284ft 129kts
22-May-20 16:25 34.402713 -118.429263 46 7740ft 138kts
22-May-20 16:26 34.426107 -118.392274 47 8228ft 137kts
22-May-20 16:27 34.448946 -118.355920 47 8708ft 136kts
22-May-20 16:28 34.471845 -118.319392 47 9193ft 135kts
22-May-20 16:29 34.494469 -118.283347 47 9677ft 132kts
22-May-20 16:30 34.516602 -118.248034 47 10162ft 129kts
22-May-20 16:31 34.537785 -118.214112 47 10642ft 123kts
22-May-20 16:32 34.558491 -118.181065 47 11004ft 127kts
22-May-20 16:33 34.581945 -118.143921 44 11139ft 146kts
22-May-20 16:34 34.611098 -118.103370 54 11014ft 167kts
22-May-20 16:35 34.633112 -118.053572 87 11017ft 172kts
22-May-20 16:36 34.639065 -117.995314 81 11008ft 174kts
22-May-20 16:37 34.645651 -117.936858 82 10999ft 174kts
22-May-20 16:38 34.652040 -117.878205 82 10989ft 174kts
22-May-20 16:39 34.658401 -117.819679 82 10981ft 174kts
22-May-20 16:40 34.664902 -117.761240 76 10984ft 174kts
22-May-20 16:41 34.679553 -117.705127 71 10988ft 174kts
22-May-20 16:42 34.693959 -117.648831 70 10993ft 174kts
22-May-20 16:43 34.708408 -117.592355 70 11001ft 174kts
22-May-20 16:44 34.722905 -117.535597 70 11002ft 175kts
22-May-20 16:45 34.737343 -117.478962 70 11002ft 175kts
22-May-20 16:46 34.751755 -117.422304 70 11002ft 175kts
22-May-20 16:47 34.766177 -117.365489 70 11002ft 175kts
22-May-20 16:48 34.780623 -117.308452 71 10991ft 175kts
22-May-20 16:49 34.794951 -117.251759 71 10977ft 175kts
22-May-20 16:50 34.809259 -117.195014 71 10959ft 175kts
22-May-20 16:51 34.823486 -117.138449 71 10937ft 175kts
22-May-20 16:52 34.837774 -117.081520 71 10916ft 174kts
22-May-20 16:53 34.851876 -117.025190 71 10903ft 173kts
22-May-20 16:54 34.865862 -116.969242 71 10894ft 171kts
22-May-20 16:55 34.879794 -116.913424 71 10890ft 171kts
22-May-20 16:56 34.893539 -116.858176 72 10890ft 170kts
22-May-20 16:57 34.907355 -116.802560 72 10890ft 171kts
22-May-20 16:58 34.920906 -116.747859 72 11008ft 166kts
22-May-20 16:59 34.934459 -116.693112 73 11011ft 170kts
22-May-20 17:00 34.948237 -116.637267 73 11011ft 173kts
22-May-20 17:01 34.962210 -116.580547 73 11013ft 175kts
22-May-20 17:02 34.985317 -116.527622 60 11004ft 179kts
22-May-20 17:03 35.009371 -116.473512 61 11005ft 183kts
22-May-20 17:04 35.033900 -116.418199 62 11006ft 186kts
22-May-20 17:05 35.058704 -116.362217 63 11006ft 187kts
22-May-20 17:06 35.083507 -116.306158 63 11001ft 187kts
22-May-20 17:07 35.108357 -116.249898 63 10996ft 186kts
22-May-20 17:08 35.132806 -116.194459 63 10996ft 185kts
22-May-20 17:09 35.157263 -116.138910 63 10997ft 185kts
22-May-20 17:10 35.181615 -116.083505 63 10997ft 185kts
22-May-20 17:11 35.205907 -116.028147 63 10998ft 185kts
22-May-20 17:12 35.230281 -115.972510 63 10998ft 185kts
22-May-20 17:13 35.254665 -115.916755 63 10999ft 185kts
22-May-20 17:14 35.278889 -115.861305 63 11040ft 184kts
22-May-20 17:15 35.302930 -115.806179 62 11085ft 184kts
22-May-20 17:16 35.333903 -115.756648 44 11126ft 183kts
22-May-20 17:17 35.368677 -115.710391 44 11164ft 184kts
22-May-20 17:18 35.403371 -115.664104 44 11193ft 184kts
22-May-20 17:19 35.438693 -115.616950 44 10969ft 197kts
22-May-20 17:20 35.476723 -115.565853 42 10112ft 206kts
22-May-20 17:21 35.512316 -115.516102 46 10128ft 185kts
22-May-20 17:23 35.543077 -115.467541 40 10237ft 177kts
22-May-20 17:24 35.578322 -115.424264 33 10229ft 178kts
22-May-20 17:25 35.613809 -115.381653 45 10256ft 180kts
22-May-20 17:26 35.646548 -115.334507 37 10248ft 179kts
22-May-20 17:27 35.681597 -115.290387 42 10209ft 181kts
22-May-20 17:28 35.717760 -115.248842 24 10148ft 169kts
22-May-20 17:29 35.759069 -115.218291 23 9572ft 180kts
22-May-20 17:30 35.804385 -115.193144 12 8870ft 177kts
22-May-20 17:31 35.851217 -115.172925 12 7973ft 181kts
22-May-20 17:32 35.898851 -115.153094 12 6956ft 177kts
22-May-20 17:33 35.944468 -115.134556 11 6208ft 161kts
22-May-20 17:34 35.985793 -115.118149 9 5789ft 153kts
22-May-20 17:35 36.027080 -115.102513 8 5250ft 157kts
22-May-20 17:36 36.067939 -115.096343 356 4637ft 139kts
22-May-20 17:37 36.104497 -115.092766 339 3635ft 111kts
22-May-20 17:38 36.114079 -115.118760 265 3052ft 92kts
22-May-20 17:39 36.111770 -115.148853 226 2537ft 100kts
22-May-20 17:39 36.092434 -115.160332 218 2112ft 64kts
22-May-20 17:40 36.089580 -115.164070 319 2130ft 7kts
22-May-20 17:42 36.094453 -115.162531 284 2111ft 0kts

Navigation Log

Ident Type
Flight plan parsing failed, navigation log unavailable